Terminal Aerodrome Forecast
Issued by NWS Birmingham, AL

Home | Current Version | Previous Version | Text Only | Print | Product List | Glossary On
Versions: 1 2 3 4 5 6 7 8 9 10 11 12 13 14 15 16 17 18 19 20 21
000
FTUS44 KBMX 240800 AAA
TAFBHM
TAF AMD
KBHM 240832Z 2409/2506 VRB02KT P6SM BKN035
     FM241400 26006KT P6SM VCSH BKN025 BKN080
     FM242000 30005KT P6SM VCSH BKN035=

USA.gov is the U.S. government's official web portal to all federal, state and local government web resources and services.